sensor_id;sensor_type;location;lat;lon;timestamp;P1;durP1;ratioP1;P2;durP2;ratioP2
12484;SDS011;6307;46.804;11.580;2022-08-03T00:00:47;4.13;;;1.63;;
12484;SDS011;6307;46.804;11.580;2022-08-03T00:03:13;1.43;;;1.10;;
12484;SDS011;6307;46.804;11.580;2022-08-03T00:05:39;2.27;;;1.40;;
12484;SDS011;6307;46.804;11.580;2022-08-03T00:08:06;3.70;;;1.63;;
12484;SDS011;6307;46.804;11.580;2022-08-03T00:10:32;2.27;;;1.60;;
12484;SDS011;6307;46.804;11.580;2022-08-03T00:12:58;1.63;;;1.53;;
12484;SDS011;6307;46.804;11.580;2022-08-03T00:15:25;2.30;;;1.47;;
12484;SDS011;6307;46.804;11.580;2022-08-03T00:17:51;2.00;;;1.50;;
12484;SDS011;6307;46.804;11.580;2022-08-03T00:20:17;2.03;;;1.60;;
12484;SDS011;6307;46.804;11.580;2022-08-03T00:22:43;3.87;;;1.60;;
12484;SDS011;6307;46.804;11.580;2022-08-03T00:25:09;2.13;;;1.50;;
12484;SDS011;6307;46.804;11.580;2022-08-03T00:27:35;4.67;;;1.77;;
12484;SDS011;6307;46.804;11.580;2022-08-03T00:30:20;4.53;;;1.57;;
12484;SDS011;6307;46.804;11.580;2022-08-03T00:32:46;2.07;;;1.50;;
12484;SDS011;6307;46.804;11.580;2022-08-03T00:35:13;2.73;;;1.60;;
12484;SDS011;6307;46.804;11.580;2022-08-03T00:37:39;6.77;;;1.87;;
12484;SDS011;6307;46.804;11.580;2022-08-03T00:40:05;1.97;;;1.70;;
12484;SDS011;6307;46.804;11.580;2022-08-03T00:42:32;2.17;;;1.77;;
12484;SDS011;6307;46.804;11.580;2022-08-03T00:44:58;4.10;;;1.70;;
12484;SDS011;6307;46.804;11.580;2022-08-03T00:47:24;2.53;;;1.43;;
12484;SDS011;6307;46.804;11.580;2022-08-03T00:49:50;2.47;;;1.77;;
12484;SDS011;6307;46.804;11.580;2022-08-03T00:52:16;2.63;;;1.73;;
12484;SDS011;6307;46.804;11.580;2022-08-03T00:54:43;3.63;;;1.87;;
12484;SDS011;6307;46.804;11.580;2022-08-03T00:57:09;2.97;;;1.60;;
12484;SDS011;6307;46.804;11.580;2022-08-03T00:59:35;3.20;;;1.70;;
12484;SDS011;6307;46.804;11.580;2022-08-03T01:02:03;4.90;;;1.80;;
12484;SDS011;6307;46.804;11.580;2022-08-03T01:04:30;5.03;;;1.60;;
12484;SDS011;6307;46.804;11.580;2022-08-03T01:09:35;3.93;;;1.70;;
12484;SDS011;6307;46.804;11.580;2022-08-03T01:15:44;4.13;;;1.70;;
12484;SDS011;6307;46.804;11.580;2022-08-03T01:21:46;2.03;;;1.60;;
12484;SDS011;6307;46.804;11.580;2022-08-03T01:28:08;6.80;;;1.77;;
12484;SDS011;6307;46.804;11.580;2022-08-03T01:30:41;3.43;;;1.90;;
12484;SDS011;6307;46.804;11.580;2022-08-03T01:33:12;3.13;;;1.60;;
12484;SDS011;6307;46.804;11.580;2022-08-03T01:36:04;3.57;;;1.73;;
12484;SDS011;6307;46.804;11.580;2022-08-03T01:38:48;5.60;;;2.20;;
12484;SDS011;6307;46.804;11.580;2022-08-03T01:41:20;3.10;;;1.70;;
12484;SDS011;6307;46.804;11.580;2022-08-03T01:43:53;3.20;;;1.77;;
12484;SDS011;6307;46.804;11.580;2022-08-03T01:46:24;5.40;;;1.77;;
12484;SDS011;6307;46.804;11.580;2022-08-03T01:48:51;4.43;;;1.47;;
12484;SDS011;6307;46.804;11.580;2022-08-03T01:51:20;5.07;;;1.90;;
12484;SDS011;6307;46.804;11.580;2022-08-03T01:53:49;5.47;;;1.90;;
12484;SDS011;6307;46.804;11.580;2022-08-03T01:56:19;3.00;;;1.60;;
12484;SDS011;6307;46.804;11.580;2022-08-03T01:58:48;1.57;;;1.47;;
12484;SDS011;6307;46.804;11.580;2022-08-03T02:01:17;2.53;;;1.77;;
12484;SDS011;6307;46.804;11.580;2022-08-03T02:03:46;2.67;;;1.73;;
12484;SDS011;6307;46.804;11.580;2022-08-03T02:06:15;1.87;;;1.50;;
12484;SDS011;6307;46.804;11.580;2022-08-03T02:08:44;3.00;;;1.63;;
12484;SDS011;6307;46.804;11.580;2022-08-03T02:11:13;3.17;;;1.70;;
12484;SDS011;6307;46.804;11.580;2022-08-03T02:13:40;2.80;;;1.80;;
12484;SDS011;6307;46.804;11.580;2022-08-03T02:16:09;2.77;;;1.80;;
12484;SDS011;6307;46.804;11.580;2022-08-03T02:18:39;5.97;;;1.90;;
12484;SDS011;6307;46.804;11.580;2022-08-03T02:21:06;4.07;;;1.80;;
12484;SDS011;6307;46.804;11.580;2022-08-03T02:23:36;3.10;;;2.00;;
12484;SDS011;6307;46.804;11.580;2022-08-03T02:26:04;2.10;;;1.70;;
12484;SDS011;6307;46.804;11.580;2022-08-03T02:28:37;5.37;;;1.83;;
12484;SDS011;6307;46.804;11.580;2022-08-03T02:31:14;1.67;;;1.57;;
12484;SDS011;6307;46.804;11.580;2022-08-03T02:33:49;2.40;;;1.70;;
12484;SDS011;6307;46.804;11.580;2022-08-03T02:36:21;3.23;;;1.70;;
12484;SDS011;6307;46.804;11.580;2022-08-03T02:38:52;3.27;;;1.90;;
12484;SDS011;6307;46.804;11.580;2022-08-03T02:41:23;2.47;;;1.93;;
12484;SDS011;6307;46.804;11.580;2022-08-03T02:43:59;2.37;;;1.83;;
12484;SDS011;6307;46.804;11.580;2022-08-03T02:46:32;2.33;;;1.70;;
12484;SDS011;6307;46.804;11.580;2022-08-03T02:49:05;2.53;;;2.13;;
12484;SDS011;6307;46.804;11.580;2022-08-03T02:51:34;3.73;;;1.90;;
12484;SDS011;6307;46.804;11.580;2022-08-03T02:54:02;4.20;;;1.80;;
12484;SDS011;6307;46.804;11.580;2022-08-03T02:56:32;4.00;;;2.03;;
12484;SDS011;6307;46.804;11.580;2022-08-03T02:58:59;3.17;;;1.97;;
12484;SDS011;6307;46.804;11.580;2022-08-03T03:01:27;3.97;;;2.03;;
12484;SDS011;6307;46.804;11.580;2022-08-03T03:03:55;4.07;;;1.60;;
12484;SDS011;6307;46.804;11.580;2022-08-03T03:06:24;2.63;;;1.70;;
12484;SDS011;6307;46.804;11.580;2022-08-03T03:08:51;3.80;;;2.20;;
12484;SDS011;6307;46.804;11.580;2022-08-03T03:11:19;4.03;;;2.10;;
12484;SDS011;6307;46.804;11.580;2022-08-03T03:13:47;2.27;;;1.87;;
12484;SDS011;6307;46.804;11.580;2022-08-03T03:16:15;3.50;;;1.97;;
12484;SDS011;6307;46.804;11.580;2022-08-03T03:18:42;1.90;;;1.70;;
12484;SDS011;6307;46.804;11.580;2022-08-03T03:21:11;2.57;;;2.10;;
12484;SDS011;6307;46.804;11.580;2022-08-03T03:23:41;2.73;;;1.70;;
12484;SDS011;6307;46.804;11.580;2022-08-03T03:26:11;3.70;;;1.70;;
12484;SDS011;6307;46.804;11.580;2022-08-03T03:28:39;2.97;;;1.80;;
12484;SDS011;6307;46.804;11.580;2022-08-03T03:31:07;2.17;;;1.87;;
12484;SDS011;6307;46.804;11.580;2022-08-03T03:33:33;2.77;;;1.80;;
12484;SDS011;6307;46.804;11.580;2022-08-03T03:36:01;2.03;;;1.87;;
12484;SDS011;6307;46.804;11.580;2022-08-03T03:38:29;3.20;;;1.63;;
12484;SDS011;6307;46.804;11.580;2022-08-03T03:40:56;3.30;;;2.07;;
12484;SDS011;6307;46.804;11.580;2022-08-03T03:43:23;3.37;;;1.90;;
12484;SDS011;6307;46.804;11.580;2022-08-03T03:45:51;3.23;;;1.80;;
12484;SDS011;6307;46.804;11.580;2022-08-03T03:48:18;2.07;;;1.80;;
12484;SDS011;6307;46.804;11.580;2022-08-03T03:50:47;7.00;;;1.90;;
12484;SDS011;6307;46.804;11.580;2022-08-03T03:53:14;3.33;;;1.93;;
12484;SDS011;6307;46.804;11.580;2022-08-03T03:55:41;1.90;;;1.70;;
12484;SDS011;6307;46.804;11.580;2022-08-03T03:58:07;3.87;;;1.97;;
12484;SDS011;6307;46.804;11.580;2022-08-03T04:00:34;2.43;;;2.00;;
12484;SDS011;6307;46.804;11.580;2022-08-03T04:03:00;3.27;;;2.00;;
12484;SDS011;6307;46.804;11.580;2022-08-03T04:05:26;3.07;;;2.20;;
12484;SDS011;6307;46.804;11.580;2022-08-03T04:08:13;3.60;;;1.97;;
12484;SDS011;6307;46.804;11.580;2022-08-03T04:13:55;2.27;;;2.00;;
12484;SDS011;6307;46.804;11.580;2022-08-03T04:16:40;3.80;;;2.00;;
12484;SDS011;6307;46.804;11.580;2022-08-03T04:19:17;4.07;;;2.10;;
12484;SDS011;6307;46.804;11.580;2022-08-03T04:21:57;2.33;;;2.00;;
12484;SDS011;6307;46.804;11.580;2022-08-03T04:24:38;1.80;;;1.60;;
12484;SDS011;6307;46.804;11.580;2022-08-03T04:27:13;3.20;;;2.00;;
12484;SDS011;6307;46.804;11.580;2022-08-03T04:29:45;3.53;;;1.87;;
12484;SDS011;6307;46.804;11.580;2022-08-03T04:32:15;2.63;;;1.90;;
12484;SDS011;6307;46.804;11.580;2022-08-03T04:34:44;4.27;;;1.90;;
12484;SDS011;6307;46.804;11.580;2022-08-03T04:37:12;5.33;;;1.97;;
12484;SDS011;6307;46.804;11.580;2022-08-03T04:39:52;3.57;;;2.40;;
12484;SDS011;6307;46.804;11.580;2022-08-03T04:42:22;3.37;;;2.30;;
12484;SDS011;6307;46.804;11.580;2022-08-03T04:44:50;3.47;;;2.40;;
12484;SDS011;6307;46.804;11.580;2022-08-03T04:47:19;4.07;;;2.17;;
12484;SDS011;6307;46.804;11.580;2022-08-03T04:49:45;2.17;;;1.90;;
12484;SDS011;6307;46.804;11.580;2022-08-03T04:52:12;4.10;;;2.13;;
12484;SDS011;6307;46.804;11.580;2022-08-03T04:54:39;3.43;;;2.37;;
12484;SDS011;6307;46.804;11.580;2022-08-03T04:57:08;2.53;;;1.80;;
12484;SDS011;6307;46.804;11.580;2022-08-03T04:59:36;4.30;;;2.37;;
12484;SDS011;6307;46.804;11.580;2022-08-03T05:02:03;2.37;;;2.17;;
12484;SDS011;6307;46.804;11.580;2022-08-03T05:04:31;4.73;;;2.00;;
12484;SDS011;6307;46.804;11.580;2022-08-03T05:06:57;2.20;;;2.00;;
12484;SDS011;6307;46.804;11.580;2022-08-03T05:09:23;2.87;;;2.00;;
12484;SDS011;6307;46.804;11.580;2022-08-03T05:11:49;4.23;;;2.13;;
12484;SDS011;6307;46.804;11.580;2022-08-03T05:14:15;2.20;;;2.00;;
12484;SDS011;6307;46.804;11.580;2022-08-03T05:16:41;2.50;;;1.90;;
12484;SDS011;6307;46.804;11.580;2022-08-03T05:19:07;2.77;;;2.07;;
12484;SDS011;6307;46.804;11.580;2022-08-03T05:21:33;2.57;;;2.17;;
12484;SDS011;6307;46.804;11.580;2022-08-03T05:23:59;2.20;;;2.00;;
12484;SDS011;6307;46.804;11.580;2022-08-03T05:26:26;2.80;;;2.13;;
12484;SDS011;6307;46.804;11.580;2022-08-03T05:28:52;2.43;;;2.13;;
12484;SDS011;6307;46.804;11.580;2022-08-03T05:31:18;3.33;;;2.00;;
12484;SDS011;6307;46.804;11.580;2022-08-03T05:33:44;3.37;;;2.20;;
12484;SDS011;6307;46.804;11.580;2022-08-03T05:36:12;5.97;;;2.60;;
12484;SDS011;6307;46.804;11.580;2022-08-03T05:38:38;3.87;;;2.30;;
12484;SDS011;6307;46.804;11.580;2022-08-03T05:41:04;3.90;;;2.13;;
12484;SDS011;6307;46.804;11.580;2022-08-03T05:43:31;4.87;;;2.40;;
12484;SDS011;6307;46.804;11.580;2022-08-03T05:45:57;5.23;;;2.10;;
12484;SDS011;6307;46.804;11.580;2022-08-03T05:48:25;7.67;;;2.53;;
12484;SDS011;6307;46.804;11.580;2022-08-03T05:50:51;5.03;;;2.13;;
12484;SDS011;6307;46.804;11.580;2022-08-03T05:53:17;9.67;;;2.40;;
12484;SDS011;6307;46.804;11.580;2022-08-03T05:55:43;2.70;;;2.13;;
12484;SDS011;6307;46.804;11.580;2022-08-03T05:58:09;2.70;;;2.00;;
12484;SDS011;6307;46.804;11.580;2022-08-03T06:00:35;2.10;;;1.90;;
12484;SDS011;6307;46.804;11.580;2022-08-03T06:03:02;3.73;;;2.10;;
12484;SDS011;6307;46.804;11.580;2022-08-03T06:05:28;2.83;;;1.80;;
12484;SDS011;6307;46.804;11.580;2022-08-03T06:07:55;3.37;;;1.90;;
12484;SDS011;6307;46.804;11.580;2022-08-03T06:10:21;4.23;;;2.17;;
12484;SDS011;6307;46.804;11.580;2022-08-03T06:12:47;1.97;;;1.70;;
12484;SDS011;6307;46.804;11.580;2022-08-03T06:15:14;4.50;;;1.90;;
12484;SDS011;6307;46.804;11.580;2022-08-03T06:17:48;3.23;;;1.80;;
12484;SDS011;6307;46.804;11.580;2022-08-03T06:20:19;4.07;;;2.10;;
12484;SDS011;6307;46.804;11.580;2022-08-03T06:22:46;3.10;;;1.70;;
12484;SDS011;6307;46.804;11.580;2022-08-03T06:25:13;4.63;;;2.30;;
12484;SDS011;6307;46.804;11.580;2022-08-03T06:27:40;2.37;;;1.70;;
12484;SDS011;6307;46.804;11.580;2022-08-03T06:30:08;2.67;;;1.87;;
12484;SDS011;6307;46.804;11.580;2022-08-03T06:32:36;3.83;;;1.70;;
12484;SDS011;6307;46.804;11.580;2022-08-03T06:35:05;2.90;;;1.50;;
12484;SDS011;6307;46.804;11.580;2022-08-03T06:37:51;2.80;;;1.80;;
12484;SDS011;6307;46.804;11.580;2022-08-03T06:40:19;4.13;;;1.70;;
12484;SDS011;6307;46.804;11.580;2022-08-03T06:42:53;2.20;;;1.60;;
12484;SDS011;6307;46.804;11.580;2022-08-03T06:45:20;6.50;;;1.80;;
12484;SDS011;6307;46.804;11.580;2022-08-03T06:47:46;1.70;;;1.30;;
12484;SDS011;6307;46.804;11.580;2022-08-03T06:50:23;1.73;;;1.40;;
12484;SDS011;6307;46.804;11.580;2022-08-03T06:52:49;2.40;;;1.60;;
12484;SDS011;6307;46.804;11.580;2022-08-03T06:55:15;2.97;;;1.80;;
12484;SDS011;6307;46.804;11.580;2022-08-03T06:57:42;2.57;;;1.50;;
12484;SDS011;6307;46.804;11.580;2022-08-03T07:00:08;3.67;;;1.40;;
12484;SDS011;6307;46.804;11.580;2022-08-03T07:02:36;3.13;;;1.30;;
12484;SDS011;6307;46.804;11.580;2022-08-03T07:05:03;3.37;;;1.57;;
12484;SDS011;6307;46.804;11.580;2022-08-03T07:07:30;1.57;;;1.37;;
12484;SDS011;6307;46.804;11.580;2022-08-03T07:09:57;2.13;;;1.40;;
12484;SDS011;6307;46.804;11.580;2022-08-03T07:12:23;1.60;;;1.50;;
12484;SDS011;6307;46.804;11.580;2022-08-03T07:14:50;2.87;;;1.33;;
12484;SDS011;6307;46.804;11.580;2022-08-03T07:17:17;2.30;;;1.30;;
12484;SDS011;6307;46.804;11.580;2022-08-03T07:19:43;2.50;;;1.27;;
12484;SDS011;6307;46.804;11.580;2022-08-03T07:22:09;2.80;;;1.60;;
12484;SDS011;6307;46.804;11.580;2022-08-03T07:24:35;4.60;;;1.30;;
12484;SDS011;6307;46.804;11.580;2022-08-03T07:27:02;3.30;;;1.47;;
12484;SDS011;6307;46.804;11.580;2022-08-03T07:29:28;1.73;;;1.30;;
12484;SDS011;6307;46.804;11.580;2022-08-03T07:31:54;1.43;;;1.20;;
12484;SDS011;6307;46.804;11.580;2022-08-03T07:34:21;1.23;;;1.10;;
12484;SDS011;6307;46.804;11.580;2022-08-03T07:36:47;1.23;;;1.10;;
12484;SDS011;6307;46.804;11.580;2022-08-03T07:39:13;1.97;;;0.97;;
12484;SDS011;6307;46.804;11.580;2022-08-03T07:41:39;1.40;;;1.20;;
12484;SDS011;6307;46.804;11.580;2022-08-03T07:44:08;1.50;;;1.40;;
12484;SDS011;6307;46.804;11.580;2022-08-03T07:46:34;1.73;;;1.20;;
12484;SDS011;6307;46.804;11.580;2022-08-03T07:49:01;1.40;;;1.30;;
12484;SDS011;6307;46.804;11.580;2022-08-03T07:51:27;1.43;;;1.00;;
12484;SDS011;6307;46.804;11.580;2022-08-03T07:53:53;1.90;;;1.40;;
12484;SDS011;6307;46.804;11.580;2022-08-03T07:56:21;5.23;;;1.40;;
12484;SDS011;6307;46.804;11.580;2022-08-03T07:58:52;4.40;;;1.20;;
12484;SDS011;6307;46.804;11.580;2022-08-03T08:01:19;2.10;;;1.67;;
12484;SDS011;6307;46.804;11.580;2022-08-03T08:03:46;1.43;;;1.33;;
12484;SDS011;6307;46.804;11.580;2022-08-03T08:06:14;2.17;;;1.40;;
12484;SDS011;6307;46.804;11.580;2022-08-03T08:08:41;1.43;;;1.00;;
12484;SDS011;6307;46.804;11.580;2022-08-03T08:11:08;2.30;;;1.50;;
12484;SDS011;6307;46.804;11.580;2022-08-03T08:13:34;1.70;;;1.20;;
12484;SDS011;6307;46.804;11.580;2022-08-03T08:16:02;1.50;;;1.40;;
12484;SDS011;6307;46.804;11.580;2022-08-03T08:18:29;1.97;;;1.30;;
12484;SDS011;6307;46.804;11.580;2022-08-03T08:20:56;1.43;;;1.33;;
12484;SDS011;6307;46.804;11.580;2022-08-03T08:23:23;1.80;;;1.33;;
12484;SDS011;6307;46.804;11.580;2022-08-03T08:25:49;3.63;;;1.47;;
12484;SDS011;6307;46.804;11.580;2022-08-03T08:28:17;1.40;;;1.13;;
12484;SDS011;6307;46.804;11.580;2022-08-03T08:30:45;2.47;;;1.40;;
12484;SDS011;6307;46.804;11.580;2022-08-03T08:33:12;4.27;;;1.23;;
12484;SDS011;6307;46.804;11.580;2022-08-03T08:35:38;2.20;;;1.67;;
12484;SDS011;6307;46.804;11.580;2022-08-03T08:38:05;2.27;;;1.53;;
12484;SDS011;6307;46.804;11.580;2022-08-03T08:40:31;1.10;;;1.07;;
12484;SDS011;6307;46.804;11.580;2022-08-03T08:42:57;2.73;;;1.50;;
12484;SDS011;6307;46.804;11.580;2022-08-03T08:45:24;2.50;;;1.43;;
12484;SDS011;6307;46.804;11.580;2022-08-03T08:47:50;1.40;;;1.30;;
12484;SDS011;6307;46.804;11.580;2022-08-03T08:50:20;3.90;;;1.47;;
12484;SDS011;6307;46.804;11.580;2022-08-03T08:52:47;10.57;;;1.50;;
12484;SDS011;6307;46.804;11.580;2022-08-03T08:55:19;1.43;;;1.30;;
12484;SDS011;6307;46.804;11.580;2022-08-03T08:57:48;1.63;;;1.40;;
12484;SDS011;6307;46.804;11.580;2022-08-03T09:00:29;2.23;;;1.47;;
12484;SDS011;6307;46.804;11.580;2022-08-03T09:02:55;1.30;;;1.20;;
12484;SDS011;6307;46.804;11.580;2022-08-03T09:05:22;3.03;;;1.40;;
12484;SDS011;6307;46.804;11.580;2022-08-03T09:07:48;1.40;;;1.27;;
12484;SDS011;6307;46.804;11.580;2022-08-03T09:10:16;4.00;;;1.50;;
12484;SDS011;6307;46.804;11.580;2022-08-03T09:12:44;2.10;;;1.40;;
12484;SDS011;6307;46.804;11.580;2022-08-03T09:15:26;1.43;;;1.30;;
12484;SDS011;6307;46.804;11.580;2022-08-03T09:17:56;2.57;;;1.50;;
12484;SDS011;6307;46.804;11.580;2022-08-03T09:20:29;3.90;;;1.50;;
12484;SDS011;6307;46.804;11.580;2022-08-03T09:23:02;1.20;;;1.10;;
12484;SDS011;6307;46.804;11.580;2022-08-03T09:25:33;1.60;;;1.30;;
12484;SDS011;6307;46.804;11.580;2022-08-03T09:28:13;6.77;;;2.10;;
12484;SDS011;6307;46.804;11.580;2022-08-03T09:30:42;1.60;;;1.50;;
12484;SDS011;6307;46.804;11.580;2022-08-03T09:33:21;2.00;;;1.40;;
12484;SDS011;6307;46.804;11.580;2022-08-03T09:35:48;5.50;;;1.67;;
12484;SDS011;6307;46.804;11.580;2022-08-03T09:38:15;2.30;;;1.77;;
12484;SDS011;6307;46.804;11.580;2022-08-03T09:40:48;2.37;;;1.60;;
12484;SDS011;6307;46.804;11.580;2022-08-03T09:43:15;5.40;;;2.00;;
12484;SDS011;6307;46.804;11.580;2022-08-03T09:45:42;3.30;;;1.93;;
12484;SDS011;6307;46.804;11.580;2022-08-03T09:50:53;2.93;;;1.47;;
12484;SDS011;6307;46.804;11.580;2022-08-03T09:53:25;5.07;;;1.60;;
12484;SDS011;6307;46.804;11.580;2022-08-03T09:55:58;7.07;;;1.70;;
12484;SDS011;6307;46.804;11.580;2022-08-03T09:58:27;2.80;;;1.63;;
12484;SDS011;6307;46.804;11.580;2022-08-03T10:03:30;1.40;;;1.30;;
12484;SDS011;6307;46.804;11.580;2022-08-03T10:06:13;3.87;;;1.70;;
12484;SDS011;6307;46.804;11.580;2022-08-03T10:08:43;5.57;;;1.70;;
12484;SDS011;6307;46.804;11.580;2022-08-03T10:11:10;1.90;;;1.60;;
12484;SDS011;6307;46.804;11.580;2022-08-03T10:13:36;10.43;;;1.70;;
12484;SDS011;6307;46.804;11.580;2022-08-03T10:16:04;3.97;;;1.90;;
12484;SDS011;6307;46.804;11.580;2022-08-03T10:18:30;7.43;;;2.03;;
12484;SDS011;6307;46.804;11.580;2022-08-03T10:21:02;3.97;;;1.87;;
12484;SDS011;6307;46.804;11.580;2022-08-03T10:23:36;5.77;;;1.60;;
12484;SDS011;6307;46.804;11.580;2022-08-03T10:26:04;3.43;;;1.70;;
12484;SDS011;6307;46.804;11.580;2022-08-03T10:28:35;4.27;;;1.90;;
12484;SDS011;6307;46.804;11.580;2022-08-03T10:31:09;2.30;;;1.53;;
12484;SDS011;6307;46.804;11.580;2022-08-03T10:33:40;3.47;;;1.80;;
12484;SDS011;6307;46.804;11.580;2022-08-03T10:36:11;3.47;;;1.80;;
12484;SDS011;6307;46.804;11.580;2022-08-03T10:38:42;4.13;;;1.77;;
12484;SDS011;6307;46.804;11.580;2022-08-03T10:41:20;3.70;;;1.83;;
12484;SDS011;6307;46.804;11.580;2022-08-03T10:46:26;2.10;;;1.73;;
12484;SDS011;6307;46.804;11.580;2022-08-03T10:48:53;1.60;;;1.50;;
12484;SDS011;6307;46.804;11.580;2022-08-03T10:51:21;4.20;;;1.63;;
12484;SDS011;6307;46.804;11.580;2022-08-03T10:53:48;3.20;;;1.70;;
12484;SDS011;6307;46.804;11.580;2022-08-03T11:00:03;2.20;;;1.63;;
12484;SDS011;6307;46.804;11.580;2022-08-03T11:02:15;3.67;;;1.67;;
12484;SDS011;6307;46.804;11.580;2022-08-03T11:04:42;2.03;;;1.53;;
12484;SDS011;6307;46.804;11.580;2022-08-03T11:09:49;1.60;;;1.50;;
12484;SDS011;6307;46.804;11.580;2022-08-03T11:14:55;1.60;;;1.50;;
12484;SDS011;6307;46.804;11.580;2022-08-03T11:17:24;3.40;;;1.60;;
12484;SDS011;6307;46.804;11.580;2022-08-03T11:19:51;3.93;;;1.47;;
12484;SDS011;6307;46.804;11.580;2022-08-03T11:22:19;2.53;;;1.77;;
12484;SDS011;6307;46.804;11.580;2022-08-03T11:27:21;1.80;;;1.53;;
12484;SDS011;6307;46.804;11.580;2022-08-03T11:38:04;2.87;;;1.70;;
12484;SDS011;6307;46.804;11.580;2022-08-03T11:48:48;3.43;;;1.50;;
12484;SDS011;6307;46.804;11.580;2022-08-03T11:53:49;2.27;;;1.43;;
12484;SDS011;6307;46.804;11.580;2022-08-03T11:56:25;2.07;;;1.50;;
12484;SDS011;6307;46.804;11.580;2022-08-03T11:58:54;2.77;;;1.40;;
12484;SDS011;6307;46.804;11.580;2022-08-03T12:01:22;2.70;;;1.60;;
12484;SDS011;6307;46.804;11.580;2022-08-03T12:03:49;3.97;;;1.57;;
12484;SDS011;6307;46.804;11.580;2022-08-03T12:06:16;1.87;;;1.30;;
12484;SDS011;6307;46.804;11.580;2022-08-03T12:08:43;2.70;;;1.30;;
12484;SDS011;6307;46.804;11.580;2022-08-03T12:11:11;3.23;;;1.57;;
12484;SDS011;6307;46.804;11.580;2022-08-03T12:16:07;1.40;;;1.30;;
12484;SDS011;6307;46.804;11.580;2022-08-03T12:18:34;1.83;;;1.40;;
12484;SDS011;6307;46.804;11.580;2022-08-03T12:21:05;1.60;;;1.30;;
12484;SDS011;6307;46.804;11.580;2022-08-03T12:23:34;2.03;;;1.37;;
12484;SDS011;6307;46.804;11.580;2022-08-03T12:26:06;3.30;;;1.30;;
12484;SDS011;6307;46.804;11.580;2022-08-03T12:28:34;6.33;;;2.20;;
12484;SDS011;6307;46.804;11.580;2022-08-03T12:31:02;3.40;;;1.43;;
12484;SDS011;6307;46.804;11.580;2022-08-03T12:36:33;1.93;;;1.20;;
12484;SDS011;6307;46.804;11.580;2022-08-03T12:39:05;1.73;;;1.30;;
12484;SDS011;6307;46.804;11.580;2022-08-03T12:41:37;1.30;;;1.20;;
12484;SDS011;6307;46.804;11.580;2022-08-03T12:44:05;1.37;;;1.27;;
12484;SDS011;6307;46.804;11.580;2022-08-03T12:46:37;2.80;;;1.20;;
12484;SDS011;6307;46.804;11.580;2022-08-03T12:49:09;2.70;;;1.20;;
12484;SDS011;6307;46.804;11.580;2022-08-03T12:54:30;2.70;;;1.17;;
12484;SDS011;6307;46.804;11.580;2022-08-03T13:02:28;2.47;;;1.27;;
12484;SDS011;6307;46.804;11.580;2022-08-03T13:04:54;1.17;;;1.00;;
12484;SDS011;6307;46.804;11.580;2022-08-03T13:07:20;3.27;;;1.40;;
12484;SDS011;6307;46.804;11.580;2022-08-03T13:09:48;3.13;;;1.30;;
12484;SDS011;6307;46.804;11.580;2022-08-03T13:12:20;2.50;;;1.10;;
12484;SDS011;6307;46.804;11.580;2022-08-03T13:14:55;1.43;;;1.10;;
12484;SDS011;6307;46.804;11.580;2022-08-03T13:17:23;1.87;;;1.20;;
12484;SDS011;6307;46.804;11.580;2022-08-03T13:19:50;2.40;;;1.23;;
12484;SDS011;6307;46.804;11.580;2022-08-03T13:22:21;1.90;;;1.30;;
12484;SDS011;6307;46.804;11.580;2022-08-03T13:24:52;1.37;;;1.17;;
12484;SDS011;6307;46.804;11.580;2022-08-03T13:27:22;4.27;;;1.10;;
12484;SDS011;6307;46.804;11.580;2022-08-03T13:29:50;2.20;;;1.20;;
12484;SDS011;6307;46.804;11.580;2022-08-03T13:32:17;1.97;;;1.13;;
12484;SDS011;6307;46.804;11.580;2022-08-03T13:34:43;2.13;;;1.20;;
12484;SDS011;6307;46.804;11.580;2022-08-03T13:37:10;1.67;;;1.20;;
12484;SDS011;6307;46.804;11.580;2022-08-03T13:39:37;1.20;;;1.10;;
12484;SDS011;6307;46.804;11.580;2022-08-03T13:42:05;2.00;;;1.30;;
12484;SDS011;6307;46.804;11.580;2022-08-03T13:44:31;2.80;;;1.10;;
12484;SDS011;6307;46.804;11.580;2022-08-03T13:47:00;2.30;;;1.30;;
12484;SDS011;6307;46.804;11.580;2022-08-03T13:49:27;1.43;;;1.33;;
12484;SDS011;6307;46.804;11.580;2022-08-03T13:51:57;1.77;;;1.30;;
12484;SDS011;6307;46.804;11.580;2022-08-03T13:54:23;2.93;;;1.10;;
12484;SDS011;6307;46.804;11.580;2022-08-03T13:56:49;5.80;;;1.30;;
12484;SDS011;6307;46.804;11.580;2022-08-03T13:59:19;3.67;;;1.33;;
12484;SDS011;6307;46.804;11.580;2022-08-03T14:01:48;3.90;;;1.30;;
12484;SDS011;6307;46.804;11.580;2022-08-03T14:04:16;8.07;;;1.50;;
12484;SDS011;6307;46.804;11.580;2022-08-03T14:06:43;6.27;;;1.77;;
12484;SDS011;6307;46.804;11.580;2022-08-03T14:09:10;2.63;;;1.13;;
12484;SDS011;6307;46.804;11.580;2022-08-03T14:11:38;2.80;;;1.40;;
12484;SDS011;6307;46.804;11.580;2022-08-03T14:14:08;5.23;;;1.27;;
12484;SDS011;6307;46.804;11.580;2022-08-03T14:16:35;3.57;;;1.50;;
12484;SDS011;6307;46.804;11.580;2022-08-03T14:19:02;6.80;;;1.67;;
12484;SDS011;6307;46.804;11.580;2022-08-03T14:21:29;3.10;;;1.30;;
12484;SDS011;6307;46.804;11.580;2022-08-03T14:23:58;2.97;;;1.40;;
12484;SDS011;6307;46.804;11.580;2022-08-03T14:26:24;1.93;;;1.37;;
12484;SDS011;6307;46.804;11.580;2022-08-03T14:28:50;3.53;;;1.27;;
12484;SDS011;6307;46.804;11.580;2022-08-03T14:31:16;1.63;;;1.03;;
12484;SDS011;6307;46.804;11.580;2022-08-03T14:33:42;2.10;;;1.17;;
12484;SDS011;6307;46.804;11.580;2022-08-03T14:36:08;0.97;;;0.97;;
12484;SDS011;6307;46.804;11.580;2022-08-03T14:38:35;2.73;;;1.10;;
12484;SDS011;6307;46.804;11.580;2022-08-03T14:41:01;1.30;;;1.20;;
12484;SDS011;6307;46.804;11.580;2022-08-03T14:43:27;1.33;;;1.20;;
12484;SDS011;6307;46.804;11.580;2022-08-03T14:45:53;3.60;;;1.00;;
12484;SDS011;6307;46.804;11.580;2022-08-03T14:48:20;1.27;;;1.17;;
12484;SDS011;6307;46.804;11.580;2022-08-03T14:50:49;0.90;;;0.90;;
12484;SDS011;6307;46.804;11.580;2022-08-03T14:53:16;1.00;;;1.00;;
12484;SDS011;6307;46.804;11.580;2022-08-03T14:55:43;2.47;;;1.17;;
12484;SDS011;6307;46.804;11.580;2022-08-03T14:58:13;2.27;;;1.00;;
12484;SDS011;6307;46.804;11.580;2022-08-03T15:00:40;1.37;;;1.00;;
12484;SDS011;6307;46.804;11.580;2022-08-03T15:03:06;2.43;;;1.37;;
12484;SDS011;6307;46.804;11.580;2022-08-03T15:05:33;1.00;;;1.00;;
12484;SDS011;6307;46.804;11.580;2022-08-03T15:07:59;1.10;;;1.00;;
12484;SDS011;6307;46.804;11.580;2022-08-03T15:10:25;1.00;;;0.90;;
12484;SDS011;6307;46.804;11.580;2022-08-03T15:12:51;1.43;;;1.30;;
12484;SDS011;6307;46.804;11.580;2022-08-03T15:15:19;1.83;;;1.20;;
12484;SDS011;6307;46.804;11.580;2022-08-03T15:17:45;4.93;;;1.53;;
12484;SDS011;6307;46.804;11.580;2022-08-03T15:20:11;1.30;;;1.10;;
12484;SDS011;6307;46.804;11.580;2022-08-03T15:22:38;1.37;;;1.10;;
12484;SDS011;6307;46.804;11.580;2022-08-03T15:25:05;2.30;;;1.10;;
12484;SDS011;6307;46.804;11.580;2022-08-03T15:27:32;1.27;;;1.17;;
12484;SDS011;6307;46.804;11.580;2022-08-03T15:29:58;1.23;;;1.10;;
12484;SDS011;6307;46.804;11.580;2022-08-03T15:32:24;1.00;;;1.00;;
12484;SDS011;6307;46.804;11.580;2022-08-03T15:34:51;1.33;;;1.20;;
12484;SDS011;6307;46.804;11.580;2022-08-03T15:37:18;1.53;;;1.20;;
12484;SDS011;6307;46.804;11.580;2022-08-03T15:39:44;1.20;;;1.10;;
12484;SDS011;6307;46.804;11.580;2022-08-03T15:42:11;1.67;;;1.23;;
12484;SDS011;6307;46.804;11.580;2022-08-03T15:44:37;1.37;;;1.27;;
12484;SDS011;6307;46.804;11.580;2022-08-03T15:47:03;3.00;;;1.03;;
12484;SDS011;6307;46.804;11.580;2022-08-03T15:49:29;3.00;;;1.10;;
12484;SDS011;6307;46.804;11.580;2022-08-03T15:51:55;1.43;;;1.30;;
12484;SDS011;6307;46.804;11.580;2022-08-03T15:54:21;1.43;;;1.30;;
12484;SDS011;6307;46.804;11.580;2022-08-03T15:56:48;1.13;;;1.10;;
12484;SDS011;6307;46.804;11.580;2022-08-03T15:59:14;1.33;;;1.23;;
12484;SDS011;6307;46.804;11.580;2022-08-03T16:01:43;1.40;;;1.17;;
12484;SDS011;6307;46.804;11.580;2022-08-03T16:04:10;1.10;;;1.07;;